sensor_id;sensor_type;location;lat;lon;timestamp;temperature;humidity
55329;DHT22;41205;44.264;19.884;2023-01-06T00:01:27;281.90;2278.40
55329;DHT22;41205;44.264;19.884;2023-01-06T00:03:55;281.70;2278.40
55329;DHT22;41205;44.264;19.884;2023-01-06T00:06:24;281.70;2278.40
55329;DHT22;41205;44.264;19.884;2023-01-06T00:08:59;281.70;2278.40
55329;DHT22;41205;44.264;19.884;2023-01-06T00:11:25;281.90;2278.40
55329;DHT22;41205;44.264;19.884;2023-01-06T00:13:51;281.90;2278.40
55329;DHT22;41205;44.264;19.884;2023-01-06T00:16:19;281.90;2278.40
55329;DHT22;41205;44.264;19.884;2023-01-06T00:18:45;281.90;2278.40
55329;DHT22;41205;44.264;19.884;2023-01-06T00:21:13;281.60;2278.40
55329;DHT22;41205;44.264;19.884;2023-01-06T00:23:39;281.70;2278.40
55329;DHT22;41205;44.264;19.884;2023-01-06T00:26:06;281.60;2278.40
55329;DHT22;41205;44.264;19.884;2023-01-06T00:28:33;256.90;2252.80
55329;DHT22;41205;44.264;19.884;2023-01-06T00:31:05;256.90;2252.80
55329;DHT22;41205;44.264;19.884;2023-01-06T00:33:30;256.70;2252.80
55329;DHT22;41205;44.264;19.884;2023-01-06T00:35:59;256.70;2252.80
55329;DHT22;41205;44.264;19.884;2023-01-06T00:38:25;256.90;2252.80
55329;DHT22;41205;44.264;19.884;2023-01-06T00:40:51;256.90;2252.80
55329;DHT22;41205;44.264;19.884;2023-01-06T00:43:16;281.70;2278.40
55329;DHT22;41205;44.264;19.884;2023-01-06T00:45:42;256.90;2252.80
55329;DHT22;41205;44.264;19.884;2023-01-06T00:48:08;256.90;2252.80
55329;DHT22;41205;44.264;19.884;2023-01-06T00:50:33;281.70;2278.40
55329;DHT22;41205;44.264;19.884;2023-01-06T00:52:59;281.70;2278.40
55329;DHT22;41205;44.264;19.884;2023-01-06T00:55:25;256.90;2252.80
55329;DHT22;41205;44.264;19.884;2023-01-06T00:57:51;256.70;2252.80
55329;DHT22;41205;44.264;19.884;2023-01-06T01:00:18;256.60;2252.80
55329;DHT22;41205;44.264;19.884;2023-01-06T01:02:44;256.60;2252.80
55329;DHT22;41205;44.264;19.884;2023-01-06T01:05:09;256.50;2252.80
55329;DHT22;41205;44.264;19.884;2023-01-06T01:07:35;256.50;2252.80
55329;DHT22;41205;44.264;19.884;2023-01-06T01:10:01;256.40;2252.80
55329;DHT22;41205;44.264;19.884;2023-01-06T01:12:27;256.60;2252.80
55329;DHT22;41205;44.264;19.884;2023-01-06T01:14:53;256.50;2252.80
55329;DHT22;41205;44.264;19.884;2023-01-06T01:17:25;256.50;2252.80
55329;DHT22;41205;44.264;19.884;2023-01-06T01:19:52;256.30;2252.80
55329;DHT22;41205;44.264;19.884;2023-01-06T01:22:20;256.30;2252.80
55329;DHT22;41205;44.264;19.884;2023-01-06T01:24:46;256.50;2252.80
55329;DHT22;41205;44.264;19.884;2023-01-06T01:27:12;256.80;2252.80
55329;DHT22;41205;44.264;19.884;2023-01-06T01:29:38;256.90;2252.80
55329;DHT22;41205;44.264;19.884;2023-01-06T01:32:03;256.90;2252.80
55329;DHT22;41205;44.264;19.884;2023-01-06T01:34:29;281.60;2278.40
55329;DHT22;41205;44.264;19.884;2023-01-06T01:36:55;256.90;2252.80
55329;DHT22;41205;44.264;19.884;2023-01-06T01:39:23;256.80;2252.80
55329;DHT22;41205;44.264;19.884;2023-01-06T01:41:49;256.70;2252.80
55329;DHT22;41205;44.264;19.884;2023-01-06T01:44:51;256.70;2252.80
55329;DHT22;41205;44.264;19.884;2023-01-06T01:48:05;256.80;2252.80
55329;DHT22;41205;44.264;19.884;2023-01-06T01:50:29;256.80;2252.80
55329;DHT22;41205;44.264;19.884;2023-01-06T01:53:09;256.70;2252.80
55329;DHT22;41205;44.264;19.884;2023-01-06T01:55:38;256.60;2252.80
55329;DHT22;41205;44.264;19.884;2023-01-06T01:58:18;256.60;2252.80
55329;DHT22;41205;44.264;19.884;2023-01-06T02:00:44;256.50;2252.80
55329;DHT22;41205;44.264;19.884;2023-01-06T02:03:11;256.20;2252.80
55329;DHT22;41205;44.264;19.884;2023-01-06T02:05:40;256.00;2252.80
55329;DHT22;41205;44.264;19.884;2023-01-06T02:08:26;231.30;2252.80
55329;DHT22;41205;44.264;19.884;2023-01-06T02:10:53;231.20;2252.80
55329;DHT22;41205;44.264;19.884;2023-01-06T02:13:19;231.30;2252.80
55329;DHT22;41205;44.264;19.884;2023-01-06T02:15:44;256.00;2252.80
55329;DHT22;41205;44.264;19.884;2023-01-06T02:18:24;231.30;2252.80
55329;DHT22;41205;44.264;19.884;2023-01-06T02:23:55;231.30;2252.80
55329;DHT22;41205;44.264;19.884;2023-01-06T02:34:49;256.30;2252.80
55329;DHT22;41205;44.264;19.884;2023-01-06T02:51:33;256.20;2252.80
55329;DHT22;41205;44.264;19.884;2023-01-06T02:54:24;256.40;2252.80
55329;DHT22;41205;44.264;19.884;2023-01-06T03:00:06;256.20;2252.80
55329;DHT22;41205;44.264;19.884;2023-01-06T03:02:36;256.20;2252.80
55329;DHT22;41205;44.264;19.884;2023-01-06T03:05:04;256.20;2252.80
55329;DHT22;41205;44.264;19.884;2023-01-06T03:07:31;256.20;2252.80
55329;DHT22;41205;44.264;19.884;2023-01-06T03:09:59;256.30;2252.80
55329;DHT22;41205;44.264;19.884;2023-01-06T03:12:31;256.30;2252.80
55329;DHT22;41205;44.264;19.884;2023-01-06T03:14:59;256.30;2252.80
55329;DHT22;41205;44.264;19.884;2023-01-06T03:17:25;256.20;2252.80
55329;DHT22;41205;44.264;19.884;2023-01-06T03:19:51;256.30;2252.80
55329;DHT22;41205;44.264;19.884;2023-01-06T03:22:18;256.40;2252.80
55329;DHT22;41205;44.264;19.884;2023-01-06T03:24:44;256.40;2252.80
55329;DHT22;41205;44.264;19.884;2023-01-06T03:27:11;256.50;2252.80
55329;DHT22;41205;44.264;19.884;2023-01-06T03:29:37;256.60;2252.80
55329;DHT22;41205;44.264;19.884;2023-01-06T03:35:02;256.80;2252.80
55329;DHT22;41205;44.264;19.884;2023-01-06T03:43:05;256.90;2252.80
55329;DHT22;41205;44.264;19.884;2023-01-06T03:54:31;256.50;2252.80
55329;DHT22;41205;44.264;19.884;2023-01-06T03:57:05;256.40;2252.80
55329;DHT22;41205;44.264;19.884;2023-01-06T03:59:35;256.20;2252.80
55329;DHT22;41205;44.264;19.884;2023-01-06T04:02:03;256.20;2252.80
55329;DHT22;41205;44.264;19.884;2023-01-06T04:04:30;256.20;2252.80
55329;DHT22;41205;44.264;19.884;2023-01-06T04:06:55;256.20;2252.80
55329;DHT22;41205;44.264;19.884;2023-01-06T04:09:21;256.30;2252.80
55329;DHT22;41205;44.264;19.884;2023-01-06T04:11:47;256.30;2252.80
55329;DHT22;41205;44.264;19.884;2023-01-06T04:14:31;256.50;2252.80
55329;DHT22;41205;44.264;19.884;2023-01-06T04:16:57;256.40;2252.80
55329;DHT22;41205;44.264;19.884;2023-01-06T04:19:22;256.40;2252.80
55329;DHT22;41205;44.264;19.884;2023-01-06T04:21:48;256.30;2252.80
55329;DHT22;41205;44.264;19.884;2023-01-06T04:24:14;256.10;2252.80
55329;DHT22;41205;44.264;19.884;2023-01-06T04:26:39;231.30;2252.80
55329;DHT22;41205;44.264;19.884;2023-01-06T04:29:05;231.30;2252.80
55329;DHT22;41205;44.264;19.884;2023-01-06T04:31:31;256.00;2252.80
55329;DHT22;41205;44.264;19.884;2023-01-06T04:33:56;231.30;2252.80
55329;DHT22;41205;44.264;19.884;2023-01-06T04:36:22;256.20;2252.80
55329;DHT22;41205;44.264;19.884;2023-01-06T04:38:48;256.30;2252.80
55329;DHT22;41205;44.264;19.884;2023-01-06T04:41:13;256.10;2252.80
55329;DHT22;41205;44.264;19.884;2023-01-06T04:43:39;256.10;2252.80
55329;DHT22;41205;44.264;19.884;2023-01-06T04:46:05;256.10;2252.80
55329;DHT22;41205;44.264;19.884;2023-01-06T04:48:30;256.10;2252.80
55329;DHT22;41205;44.264;19.884;2023-01-06T04:51:00;256.10;2252.80
55329;DHT22;41205;44.264;19.884;2023-01-06T04:53:26;256.10;2252.80
55329;DHT22;41205;44.264;19.884;2023-01-06T04:55:52;256.00;2252.80
55329;DHT22;41205;44.264;19.884;2023-01-06T04:58:18;231.30;2252.80
55329;DHT22;41205;44.264;19.884;2023-01-06T05:00:43;256.00;2252.80
55329;DHT22;41205;44.264;19.884;2023-01-06T05:03:09;256.00;2252.80
55329;DHT22;41205;44.264;19.884;2023-01-06T05:05:35;256.00;2252.80
55329;DHT22;41205;44.264;19.884;2023-01-06T05:08:00;256.10;2252.80
55329;DHT22;41205;44.264;19.884;2023-01-06T05:10:26;256.20;2252.80
55329;DHT22;41205;44.264;19.884;2023-01-06T05:12:52;256.30;2252.80
55329;DHT22;41205;44.264;19.884;2023-01-06T05:15:17;256.30;2252.80
55329;DHT22;41205;44.264;19.884;2023-01-06T05:17:43;256.30;2252.80
55329;DHT22;41205;44.264;19.884;2023-01-06T05:20:09;256.20;2252.80
55329;DHT22;41205;44.264;19.884;2023-01-06T05:22:35;256.20;2252.80
55329;DHT22;41205;44.264;19.884;2023-01-06T05:25:00;256.10;2252.80
55329;DHT22;41205;44.264;19.884;2023-01-06T05:27:26;231.10;2252.80
55329;DHT22;41205;44.264;19.884;2023-01-06T05:29:52;230.80;2252.80
55329;DHT22;41205;44.264;19.884;2023-01-06T05:32:17;230.80;2252.80
55329;DHT22;41205;44.264;19.884;2023-01-06T05:34:43;231.00;2252.80
55329;DHT22;41205;44.264;19.884;2023-01-06T05:37:09;231.00;2252.80
55329;DHT22;41205;44.264;19.884;2023-01-06T05:39:34;231.20;2252.80
55329;DHT22;41205;44.264;19.884;2023-01-06T05:42:00;231.20;2252.80
55329;DHT22;41205;44.264;19.884;2023-01-06T05:44:26;231.30;2252.80
55329;DHT22;41205;44.264;19.884;2023-01-06T05:46:51;231.30;2252.80
55329;DHT22;41205;44.264;19.884;2023-01-06T05:49:17;231.30;2252.80
55329;DHT22;41205;44.264;19.884;2023-01-06T05:51:42;231.30;2252.80
55329;DHT22;41205;44.264;19.884;2023-01-06T05:54:08;231.30;2252.80
55329;DHT22;41205;44.264;19.884;2023-01-06T05:56:35;231.30;2252.80
55329;DHT22;41205;44.264;19.884;2023-01-06T05:59:00;231.30;2252.80
55329;DHT22;41205;44.264;19.884;2023-01-06T06:01:28;231.00;2252.80
55329;DHT22;41205;44.264;19.884;2023-01-06T06:03:56;230.90;2252.80
55329;DHT22;41205;44.264;19.884;2023-01-06T06:06:23;230.90;2252.80
55329;DHT22;41205;44.264;19.884;2023-01-06T06:08:50;230.80;2252.80
55329;DHT22;41205;44.264;19.884;2023-01-06T06:11:17;230.70;2252.80
55329;DHT22;41205;44.264;19.884;2023-01-06T06:13:51;230.60;2252.80
55329;DHT22;41205;44.264;19.884;2023-01-06T06:16:19;230.70;2252.80
55329;DHT22;41205;44.264;19.884;2023-01-06T06:18:49;230.70;2252.80
55329;DHT22;41205;44.264;19.884;2023-01-06T06:21:17;230.70;2252.80
55329;DHT22;41205;44.264;19.884;2023-01-06T06:23:43;230.60;2252.80
55329;DHT22;41205;44.264;19.884;2023-01-06T06:26:10;230.60;2252.80
55329;DHT22;41205;44.264;19.884;2023-01-06T06:28:36;230.50;2252.80
55329;DHT22;41205;44.264;19.884;2023-01-06T06:33:29;230.60;2252.80
55329;DHT22;41205;44.264;19.884;2023-01-06T06:35:56;230.60;2252.80
55329;DHT22;41205;44.264;19.884;2023-01-06T06:38:22;230.60;2252.80
55329;DHT22;41205;44.264;19.884;2023-01-06T06:40:48;230.60;2252.80
55329;DHT22;41205;44.264;19.884;2023-01-06T06:43:13;230.70;2252.80
55329;DHT22;41205;44.264;19.884;2023-01-06T06:45:39;230.80;2252.80
55329;DHT22;41205;44.264;19.884;2023-01-06T06:48:05;231.00;2252.80
55329;DHT22;41205;44.264;19.884;2023-01-06T06:50:31;231.10;2252.80
55329;DHT22;41205;44.264;19.884;2023-01-06T06:52:56;231.10;2252.80
55329;DHT22;41205;44.264;19.884;2023-01-06T06:55:22;231.20;2252.80
55329;DHT22;41205;44.264;19.884;2023-01-06T06:57:47;231.30;2252.80
55329;DHT22;41205;44.264;19.884;2023-01-06T07:00:14;256.10;2252.80
55329;DHT22;41205;44.264;19.884;2023-01-06T07:02:39;256.00;2252.80
55329;DHT22;41205;44.264;19.884;2023-01-06T07:05:05;256.00;2252.80
55329;DHT22;41205;44.264;19.884;2023-01-06T07:07:31;256.10;2252.80
55329;DHT22;41205;44.264;19.884;2023-01-06T07:09:57;256.20;2252.80
55329;DHT22;41205;44.264;19.884;2023-01-06T07:12:22;256.40;2252.80
55329;DHT22;41205;44.264;19.884;2023-01-06T07:14:48;256.50;2252.80
55329;DHT22;41205;44.264;19.884;2023-01-06T07:17:14;256.70;2252.80
55329;DHT22;41205;44.264;19.884;2023-01-06T07:19:39;256.70;2252.80
55329;DHT22;41205;44.264;19.884;2023-01-06T07:22:05;256.80;2252.80
55329;DHT22;41205;44.264;19.884;2023-01-06T07:24:31;256.90;2252.80
55329;DHT22;41205;44.264;19.884;2023-01-06T07:26:56;256.70;2252.80
55329;DHT22;41205;44.264;19.884;2023-01-06T07:29:22;256.70;2252.80
55329;DHT22;41205;44.264;19.884;2023-01-06T07:31:48;256.70;2252.80
55329;DHT22;41205;44.264;19.884;2023-01-06T07:34:13;256.70;2252.80
55329;DHT22;41205;44.264;19.884;2023-01-06T07:36:39;256.80;2252.80
55329;DHT22;41205;44.264;19.884;2023-01-06T07:39:05;256.80;2252.80
55329;DHT22;41205;44.264;19.884;2023-01-06T07:41:31;256.70;2252.80
55329;DHT22;41205;44.264;19.884;2023-01-06T07:43:57;256.60;2252.80
55329;DHT22;41205;44.264;19.884;2023-01-06T07:46:22;256.60;2252.80
55329;DHT22;41205;44.264;19.884;2023-01-06T07:48:48;256.70;2252.80
55329;DHT22;41205;44.264;19.884;2023-01-06T07:51:14;256.90;2252.80
55329;DHT22;41205;44.264;19.884;2023-01-06T07:53:39;256.90;2252.80
55329;DHT22;41205;44.264;19.884;2023-01-06T07:56:05;281.60;2278.40
55329;DHT22;41205;44.264;19.884;2023-01-06T07:58:31;256.80;2252.80
55329;DHT22;41205;44.264;19.884;2023-01-06T08:00:57;281.80;2278.40
55329;DHT22;41205;44.264;19.884;2023-01-06T08:03:22;282.00;2278.40
55329;DHT22;41205;44.264;19.884;2023-01-06T08:05:48;282.10;2278.40
55329;DHT22;41205;44.264;19.884;2023-01-06T08:08:13;282.20;2278.40
55329;DHT22;41205;44.264;19.884;2023-01-06T08:10:41;282.30;2278.40
55329;DHT22;41205;44.264;19.884;2023-01-06T08:13:07;282.30;2278.40
55329;DHT22;41205;44.264;19.884;2023-01-06T08:15:34;282.40;2278.40
55329;DHT22;41205;44.264;19.884;2023-01-06T08:18:01;307.20;2304.00
55329;DHT22;41205;44.264;19.884;2023-01-06T08:20:26;307.40;2304.00
55329;DHT22;41205;44.264;19.884;2023-01-06T08:22:52;307.60;2304.00
55329;DHT22;41205;44.264;19.884;2023-01-06T08:25:18;307.70;2304.00
55329;DHT22;41205;44.264;19.884;2023-01-06T08:27:44;307.80;2304.00
55329;DHT22;41205;44.264;19.884;2023-01-06T08:30:10;308.10;2304.00
55329;DHT22;41205;44.264;19.884;2023-01-06T08:32:35;333.00;2329.60
55329;DHT22;41205;44.264;19.884;2023-01-06T08:35:01;333.20;2329.60
55329;DHT22;41205;44.264;19.884;2023-01-06T08:37:27;333.20;2329.60
55329;DHT22;41205;44.264;19.884;2023-01-06T08:39:52;333.40;2329.60
55329;DHT22;41205;44.264;19.884;2023-01-06T08:42:18;333.40;2329.60
55329;DHT22;41205;44.264;19.884;2023-01-06T08:44:44;333.30;2329.60
55329;DHT22;41205;44.264;19.884;2023-01-06T08:47:10;333.20;2329.60
55329;DHT22;41205;44.264;19.884;2023-01-06T08:49:36;333.20;2329.60
55329;DHT22;41205;44.264;19.884;2023-01-06T08:52:02;333.30;2329.60
55329;DHT22;41205;44.264;19.884;2023-01-06T08:54:28;333.20;2329.60
55329;DHT22;41205;44.264;19.884;2023-01-06T08:56:55;333.30;2329.60
55329;DHT22;41205;44.264;19.884;2023-01-06T08:59:21;333.20;2329.60
55329;DHT22;41205;44.264;19.884;2023-01-06T09:01:47;333.40;2329.60
55329;DHT22;41205;44.264;19.884;2023-01-06T09:04:13;333.60;2329.60
55329;DHT22;41205;44.264;19.884;2023-01-06T09:06:41;333.70;2329.60
55329;DHT22;41205;44.264;19.884;2023-01-06T09:09:08;358.40;2329.60
55329;DHT22;41205;44.264;19.884;2023-01-06T09:11:34;358.40;2329.60
55329;DHT22;41205;44.264;19.884;2023-01-06T09:14:00;333.70;2329.60
55329;DHT22;41205;44.264;19.884;2023-01-06T09:16:25;333.70;2329.60
55329;DHT22;41205;44.264;19.884;2023-01-06T09:18:51;333.70;2329.60
55329;DHT22;41205;44.264;19.884;2023-01-06T09:21:20;358.40;2329.60
55329;DHT22;41205;44.264;19.884;2023-01-06T09:23:47;358.40;2329.60
55329;DHT22;41205;44.264;19.884;2023-01-06T09:26:14;358.60;2329.60
55329;DHT22;41205;44.264;19.884;2023-01-06T09:28:40;358.60;2329.60
55329;DHT22;41205;44.264;19.884;2023-01-06T09:31:07;358.80;2329.60
55329;DHT22;41205;44.264;19.884;2023-01-06T09:33:33;359.00;2329.60
55329;DHT22;41205;44.264;19.884;2023-01-06T09:35:58;358.90;2329.60
55329;DHT22;41205;44.264;19.884;2023-01-06T09:38:24;359.10;2329.60
55329;DHT22;41205;44.264;19.884;2023-01-06T09:45:59;384.50;2201.60
55329;DHT22;41205;44.264;19.884;2023-01-06T09:48:36;359.30;2227.20
55329;DHT22;41205;44.264;19.884;2023-01-06T09:51:04;359.30;2227.20
55329;DHT22;41205;44.264;19.884;2023-01-06T09:53:38;359.10;2304.00
55329;DHT22;41205;44.264;19.884;2023-01-06T09:56:10;359.00;2329.60
55329;DHT22;41205;44.264;19.884;2023-01-06T09:58:42;358.80;2329.60
55329;DHT22;41205;44.264;19.884;2023-01-06T10:01:21;358.70;2329.60
55329;DHT22;41205;44.264;19.884;2023-01-06T10:03:49;358.60;2329.60
55329;DHT22;41205;44.264;19.884;2023-01-06T10:08:50;358.40;2329.60
55329;DHT22;41205;44.264;19.884;2023-01-06T10:17:51;358.60;2329.60
55329;DHT22;41205;44.264;19.884;2023-01-06T10:25:53;333.70;2329.60
55329;DHT22;41205;44.264;19.884;2023-01-06T10:28:28;358.40;2329.60
55329;DHT22;41205;44.264;19.884;2023-01-06T10:30:58;333.70;2329.60
55329;DHT22;41205;44.264;19.884;2023-01-06T10:36:17;333.70;2329.60
55329;DHT22;41205;44.264;19.884;2023-01-06T10:38:45;333.60;2329.60
55329;DHT22;41205;44.264;19.884;2023-01-06T10:44:03;358.40;2329.60
55329;DHT22;41205;44.264;19.884;2023-01-06T10:46:33;358.50;2329.60
55329;DHT22;41205;44.264;19.884;2023-01-06T10:49:00;358.80;2304.00
55329;DHT22;41205;44.264;19.884;2023-01-06T10:51:40;358.90;2227.20
55329;DHT22;41205;44.264;19.884;2023-01-06T10:54:12;359.00;2227.20
55329;DHT22;41205;44.264;19.884;2023-01-06T10:56:42;359.00;2201.60
55329;DHT22;41205;44.264;19.884;2023-01-06T10:59:10;359.00;2176.00
55329;DHT22;41205;44.264;19.884;2023-01-06T11:01:48;359.10;2176.00
55329;DHT22;41205;44.264;19.884;2023-01-06T11:04:14;359.00;2176.00
55329;DHT22;41205;44.264;19.884;2023-01-06T11:06:51;359.10;2201.60
55329;DHT22;41205;44.264;19.884;2023-01-06T11:09:36;359.30;2150.40
55329;DHT22;41205;44.264;19.884;2023-01-06T11:12:12;384.10;2124.80
55329;DHT22;41205;44.264;19.884;2023-01-06T11:14:38;384.30;2124.80
55329;DHT22;41205;44.264;19.884;2023-01-06T11:17:13;384.10;2150.40
55329;DHT22;41205;44.264;19.884;2023-01-06T11:19:42;384.10;2150.40
55329;DHT22;41205;44.264;19.884;2023-01-06T11:22:31;359.20;2150.40
55329;DHT22;41205;44.264;19.884;2023-01-06T11:25:01;359.10;2150.40
55329;DHT22;41205;44.264;19.884;2023-01-06T11:27:27;359.10;2150.40
55329;DHT22;41205;44.264;19.884;2023-01-06T11:29:53;359.00;2150.40
55329;DHT22;41205;44.264;19.884;2023-01-06T11:32:26;358.90;2150.40
55329;DHT22;41205;44.264;19.884;2023-01-06T11:34:59;358.80;2176.00
55329;DHT22;41205;44.264;19.884;2023-01-06T11:37:34;358.80;2201.60
55329;DHT22;41205;44.264;19.884;2023-01-06T11:42:56;358.80;2201.60
55329;DHT22;41205;44.264;19.884;2023-01-06T11:48:04;358.70;2150.40
55329;DHT22;41205;44.264;19.884;2023-01-06T11:50:31;358.70;2150.40
55329;DHT22;41205;44.264;19.884;2023-01-06T11:53:01;358.70;2150.40
55329;DHT22;41205;44.264;19.884;2023-01-06T11:55:27;358.70;2201.60
55329;DHT22;41205;44.264;19.884;2023-01-06T11:58:12;358.60;2227.20
55329;DHT22;41205;44.264;19.884;2023-01-06T12:00:52;358.70;2201.60
55329;DHT22;41205;44.264;19.884;2023-01-06T12:03:29;358.70;2201.60
55329;DHT22;41205;44.264;19.884;2023-01-06T12:08:33;358.90;2176.00
55329;DHT22;41205;44.264;19.884;2023-01-06T12:11:14;359.00;2150.40
55329;DHT22;41205;44.264;19.884;2023-01-06T12:13:42;359.20;2099.20
55329;DHT22;41205;44.264;19.884;2023-01-06T12:16:14;359.10;2124.80
55329;DHT22;41205;44.264;19.884;2023-01-06T12:18:44;359.30;2099.20
55329;DHT22;41205;44.264;19.884;2023-01-06T12:21:25;359.30;2099.20
55329;DHT22;41205;44.264;19.884;2023-01-06T12:23:52;359.30;2073.60
55329;DHT22;41205;44.264;19.884;2023-01-06T12:26:22;359.20;2048.00
55329;DHT22;41205;44.264;19.884;2023-01-06T12:28:51;359.10;2073.60
55329;DHT22;41205;44.264;19.884;2023-01-06T12:31:29;359.10;2073.60
55329;DHT22;41205;44.264;19.884;2023-01-06T12:34:16;359.20;2073.60
55329;DHT22;41205;44.264;19.884;2023-01-06T12:37:03;359.20;2022.40
55329;DHT22;41205;44.264;19.884;2023-01-06T12:40:01;359.10;2022.40
55329;DHT22;41205;44.264;19.884;2023-01-06T12:48:34;359.10;2073.60
55329;DHT22;41205;44.264;19.884;2023-01-06T12:53:46;359.10;2048.00
55329;DHT22;41205;44.264;19.884;2023-01-06T13:01:52;359.30;1996.80
55329;DHT22;41205;44.264;19.884;2023-01-06T13:15:28;359.10;2048.00
55329;DHT22;41205;44.264;19.884;2023-01-06T13:18:11;358.90;2048.00
55329;DHT22;41205;44.264;19.884;2023-01-06T13:36:51;358.60;2048.00
55329;DHT22;41205;44.264;19.884;2023-01-06T13:39:24;358.60;2048.00
55329;DHT22;41205;44.264;19.884;2023-01-06T13:41:53;358.50;2048.00
55329;DHT22;41205;44.264;19.884;2023-01-06T13:44:24;358.40;2073.60
55329;DHT22;41205;44.264;19.884;2023-01-06T13:47:00;333.70;2073.60
55329;DHT22;41205;44.264;19.884;2023-01-06T13:49:26;333.70;2099.20
55329;DHT22;41205;44.264;19.884;2023-01-06T13:51:52;358.40;2124.80
55329;DHT22;41205;44.264;19.884;2023-01-06T13:59:53;333.70;2124.80
55329;DHT22;41205;44.264;19.884;2023-01-06T14:08:01;333.70;2099.20
55329;DHT22;41205;44.264;19.884;2023-01-06T14:10:35;333.70;2099.20
55329;DHT22;41205;44.264;19.884;2023-01-06T14:13:05;333.70;2124.80
55329;DHT22;41205;44.264;19.884;2023-01-06T14:15:40;333.70;2099.20
55329;DHT22;41205;44.264;19.884;2023-01-06T14:18:33;333.60;2124.80
55329;DHT22;41205;44.264;19.884;2023-01-06T14:23:38;333.40;2150.40
55329;DHT22;41205;44.264;19.884;2023-01-06T14:26:13;333.20;2176.00
55329;DHT22;41205;44.264;19.884;2023-01-06T14:28:39;333.20;2150.40
55329;DHT22;41205;44.264;19.884;2023-01-06T14:34:00;333.10;2176.00
55329;DHT22;41205;44.264;19.884;2023-01-06T14:36:30;333.00;2176.00
55329;DHT22;41205;44.264;19.884;2023-01-06T14:39:00;332.90;2201.60
55329;DHT22;41205;44.264;19.884;2023-01-06T14:41:31;332.90;2201.60
55329;DHT22;41205;44.264;19.884;2023-01-06T14:44:04;332.80;2252.80
55329;DHT22;41205;44.264;19.884;2023-01-06T14:46:44;308.10;2227.20
55329;DHT22;41205;44.264;19.884;2023-01-06T14:52:08;308.00;2252.80
55329;DHT22;41205;44.264;19.884;2023-01-06T14:54:41;308.00;2278.40
55329;DHT22;41205;44.264;19.884;2023-01-06T14:57:26;307.90;2278.40
55329;DHT22;41205;44.264;19.884;2023-01-06T15:00:16;307.80;2304.00
55329;DHT22;41205;44.264;19.884;2023-01-06T15:02:50;307.80;2304.00
55329;DHT22;41205;44.264;19.884;2023-01-06T15:10:25;307.50;2304.00
55329;DHT22;41205;44.264;19.884;2023-01-06T15:12:52;307.40;2304.00
55329;DHT22;41205;44.264;19.884;2023-01-06T15:17:47;307.30;2304.00
55329;DHT22;41205;44.264;19.884;2023-01-06T15:20:13;307.20;2304.00
55329;DHT22;41205;44.264;19.884;2023-01-06T15:22:39;307.20;2304.00
55329;DHT22;41205;44.264;19.884;2023-01-06T15:25:06;307.20;2304.00
55329;DHT22;41205;44.264;19.884;2023-01-06T15:27:32;307.20;2304.00
55329;DHT22;41205;44.264;19.884;2023-01-06T15:29:57;282.50;2278.40
55329;DHT22;41205;44.264;19.884;2023-01-06T15:32:24;307.60;2304.00
55329;DHT22;41205;44.264;19.884;2023-01-06T15:34:51;282.40;2278.40
55329;DHT22;41205;44.264;19.884;2023-01-06T15:37:23;282.20;2278.40
55329;DHT22;41205;44.264;19.884;2023-01-06T15:39:50;282.20;2278.40
55329;DHT22;41205;44.264;19.884;2023-01-06T15:42:20;282.20;2278.40
55329;DHT22;41205;44.264;19.884;2023-01-06T15:45:00;282.20;2278.40
55329;DHT22;41205;44.264;19.884;2023-01-06T15:49:54;282.00;2278.40
55329;DHT22;41205;44.264;19.884;2023-01-06T15:52:26;282.00;2278.40
55329;DHT22;41205;44.264;19.884;2023-01-06T15:54:55;281.90;2278.40
55329;DHT22;41205;44.264;19.884;2023-01-06T15:57:23;281.80;2278.40
55329;DHT22;41205;44.264;19.884;2023-01-06T15:59:55;281.70;2278.40
55329;DHT22;41205;44.264;19.884;2023-01-06T16:02:24;281.70;2278.40
55329;DHT22;41205;44.264;19.884;2023-01-06T16:04:50;281.60;2278.40
55329;DHT22;41205;44.264;19.884;2023-01-06T16:07:38;281.60;2278.40
55329;DHT22;41205;44.264;19.884;2023-01-06T16:10:30;281.60;2278.40
55329;DHT22;41205;44.264;19.884;2023-01-06T16:13:26;256.90;2252.80
55329;DHT22;41205;44.264;19.884;2023-01-06T16:18:41;256.80;2252.80
55329;DHT22;41205;44.264;19.884;2023-01-06T16:23:47;256.20;2252.80
55329;DHT22;41205;44.264;19.884;2023-01-06T16:26:16;256.00;2252.80
55329;DHT22;41205;44.264;19.884;2023-01-06T16:28:49;231.30;2252.80
55329;DHT22;41205;44.264;19.884;2023-01-06T16:31:31;231.20;2252.80
55329;DHT22;41205;44.264;19.884;2023-01-06T16:36:49;231.20;2252.80
55329;DHT22;41205;44.264;19.884;2023-01-06T16:39:15;231.20;2252.80
55329;DHT22;41205;44.264;19.884;2023-01-06T16:42:18;231.20;2252.80
55329;DHT22;41205;44.264;19.884;2023-01-06T16:47:32;231.00;2252.80
55329;DHT22;41205;44.264;19.884;2023-01-06T16:50:00;231.00;2252.80
55329;DHT22;41205;44.264;19.884;2023-01-06T16:52:26;230.90;2252.80
55329;DHT22;41205;44.264;19.884;2023-01-06T16:54:53;230.90;2252.80
55329;DHT22;41205;44.264;19.884;2023-01-06T16:57:21;230.80;2252.80
55329;DHT22;41205;44.264;19.884;2023-01-06T16:59:47;230.90;2252.80
55329;DHT22;41205;44.264;19.884;2023-01-06T17:02:16;230.80;2252.80
55329;DHT22;41205;44.264;19.884;2023-01-06T17:04:44;230.80;2252.80
55329;DHT22;41205;44.264;19.884;2023-01-06T17:07:14;230.80;2252.80
55329;DHT22;41205;44.264;19.884;2023-01-06T17:09:41;230.90;2252.80
55329;DHT22;41205;44.264;19.884;2023-01-06T17:12:14;230.80;2252.80
55329;DHT22;41205;44.264;19.884;2023-01-06T17:15:03;230.80;2252.80
55329;DHT22;41205;44.264;19.884;2023-01-06T17:17:37;230.70;2252.80
55329;DHT22;41205;44.264;19.884;2023-01-06T17:20:10;230.60;2252.80
55329;DHT22;41205;44.264;19.884;2023-01-06T17:22:37;230.60;2252.80
55329;DHT22;41205;44.264;19.884;2023-01-06T17:25:10;230.60;2252.80
55329;DHT22;41205;44.264;19.884;2023-01-06T17:27:37;230.50;2252.80
55329;DHT22;41205;44.264;19.884;2023-01-06T17:30:09;230.50;2252.80
55329;DHT22;41205;44.264;19.884;2023-01-06T17:32:41;230.50;2252.80